createdAt,value
2022-09-09T00:00:40.780Z,57.12
2022-09-09T00:01:40.805Z,54.28
2022-09-09T00:02:40.819Z,54.19
2022-09-09T00:03:40.893Z,58.42
2022-09-09T00:04:40.754Z,55.77
2022-09-09T00:05:40.789Z,56.47
2022-09-09T00:06:40.776Z,55.43
2022-09-09T00:07:40.743Z,58.28
2022-09-09T00:08:40.771Z,56.34
2022-09-09T00:09:40.700Z,55.05
2022-09-09T00:10:40.661Z,54.27
2022-09-09T00:11:40.649Z,55.99
2022-09-09T00:12:40.638Z,54.45
2022-09-09T00:13:40.574Z,54.38
2022-09-09T00:14:40.907Z,54.61
2022-09-09T00:15:40.621Z,56.50
2022-09-09T00:16:40.633Z,56.57
2022-09-09T00:17:40.521Z,56.02
2022-09-09T00:18:40.589Z,55.63
2022-09-09T00:19:40.712Z,56.80
2022-09-09T00:20:40.729Z,56.59
2022-09-09T00:21:40.651Z,54.60
2022-09-09T00:22:40.709Z,55.66
2022-09-09T00:23:40.641Z,55.93
2022-09-09T00:24:40.613Z,54.87
2022-09-09T00:25:40.666Z,56.52
2022-09-09T00:26:40.596Z,57.68
2022-09-09T00:27:40.589Z,58.36
2022-09-09T00:28:40.564Z,56.00
2022-09-09T00:29:40.629Z,55.99
2022-09-09T00:30:40.629Z,55.96
2022-09-09T00:31:40.578Z,57.70
2022-09-09T00:32:40.568Z,55.69
2022-09-09T00:33:40.571Z,55.13
2022-09-09T00:34:40.542Z,56.76
2022-09-09T00:35:40.886Z,57.08
2022-09-09T00:36:40.446Z,55.33
2022-09-09T00:37:40.523Z,54.34
2022-09-09T00:38:40.418Z,54.12
2022-09-09T00:39:40.455Z,54.08
2022-09-09T00:40:40.489Z,56.78
2022-09-09T00:41:40.456Z,55.66
2022-09-09T00:42:40.478Z,56.74
2022-09-09T00:43:40.517Z,57.53
2022-09-09T00:44:40.468Z,55.15
2022-09-09T00:45:40.473Z,57.22
2022-09-09T00:46:40.528Z,56.32
2022-09-09T00:47:40.431Z,56.07
2022-09-09T00:48:40.437Z,56.43
2022-09-09T00:49:40.459Z,54.69
2022-09-09T00:50:40.442Z,54.74
2022-09-09T00:51:40.435Z,53.90
2022-09-09T00:52:40.337Z,54.90
2022-09-09T00:53:40.458Z,56.90
2022-09-09T00:54:40.388Z,55.73
2022-09-09T00:55:40.388Z,54.81
2022-09-09T00:56:40.360Z,55.94
2022-09-09T00:57:40.451Z,54.42
2022-09-09T00:58:40.388Z,57.04
2022-09-09T00:59:40.335Z,56.62
2022-09-09T01:00:40.371Z,55.74
2022-09-09T01:01:40.446Z,56.80
2022-09-09T01:02:40.515Z,55.75
2022-09-09T01:03:40.368Z,55.37
2022-09-09T01:04:40.263Z,55.17
2022-09-09T01:05:40.285Z,54.30
2022-09-09T01:06:40.224Z,54.51
2022-09-09T01:07:40.330Z,54.96
2022-09-09T01:08:40.214Z,55.31
2022-09-09T01:09:40.286Z,55.76
2022-09-09T01:10:40.269Z,53.74
2022-09-09T01:11:40.258Z,54.93
2022-09-09T01:12:40.262Z,56.06
2022-09-09T01:13:40.298Z,55.45
2022-09-09T01:14:40.284Z,57.55
2022-09-09T01:15:40.239Z,56.98
2022-09-09T01:16:40.280Z,55.56
2022-09-09T01:17:40.267Z,55.29
2022-09-09T01:18:40.303Z,56.55
2022-09-09T01:19:40.266Z,55.62
2022-09-09T01:20:40.202Z,55.24
2022-09-09T01:21:40.231Z,55.19
2022-09-09T01:22:40.200Z,55.38
2022-09-09T01:23:40.276Z,56.12
2022-09-09T01:24:40.185Z,56.36
2022-09-09T01:25:40.324Z,55.69
2022-09-09T01:26:40.189Z,55.91
2022-09-09T01:27:40.086Z,56.74
2022-09-09T01:28:40.122Z,56.26
2022-09-09T01:29:40.231Z,55.46
2022-09-09T01:30:40.134Z,56.51
2022-09-09T01:31:40.027Z,54.87
2022-09-09T01:32:40.042Z,56.56
2022-09-09T01:33:40.087Z,56.60
2022-09-09T01:34:40.163Z,55.71
2022-09-09T01:35:40.089Z,55.47
2022-09-09T01:36:40.138Z,54.91
2022-09-09T01:37:40.134Z,53.66
2022-09-09T01:38:40.092Z,54.97
2022-09-09T01:39:40.191Z,55.24
2022-09-09T01:40:40.077Z,54.63
2022-09-09T01:41:40.059Z,54.50
2022-09-09T01:42:40.066Z,54.32
2022-09-09T01:43:40.063Z,54.36
2022-09-09T01:44:40.121Z,56.20
2022-09-09T01:45:40.126Z,55.40
2022-09-09T01:46:40.091Z,56.08
2022-09-09T01:47:40.075Z,54.20
2022-09-09T01:48:39.926Z,55.04
2022-09-09T01:49:39.927Z,54.63
2022-09-09T01:50:39.950Z,54.68
2022-09-09T01:51:39.902Z,55.48
2022-09-09T01:52:39.895Z,55.60
2022-09-09T01:53:39.898Z,55.10
2022-09-09T01:54:39.901Z,54.66
2022-09-09T01:55:39.919Z,54.63
2022-09-09T01:56:39.909Z,55.73
2022-09-09T01:57:39.916Z,54.77
2022-09-09T01:58:39.862Z,55.82
2022-09-09T01:59:39.947Z,56.05
2022-09-09T02:00:39.971Z,54.70
2022-09-09T02:01:39.930Z,53.99
2022-09-09T02:02:40.019Z,53.65
2022-09-09T02:03:39.915Z,53.70
2022-09-09T02:04:39.927Z,55.74
2022-09-09T02:05:40.857Z,54.88
2022-09-09T02:06:39.921Z,56.30
2022-09-09T02:07:39.886Z,56.42
2022-09-09T02:08:39.908Z,54.34
2022-09-09T02:09:39.922Z,55.08
2022-09-09T02:10:39.934Z,55.90
2022-09-09T02:11:39.920Z,54.95
2022-09-09T02:12:39.845Z,57.91
2022-09-09T02:13:39.936Z,57.28
2022-09-09T02:14:39.887Z,56.90
2022-09-09T02:15:40.928Z,56.27
2022-09-09T02:16:39.916Z,55.43
2022-09-09T02:17:39.821Z,56.23
2022-09-09T02:18:39.827Z,55.75
2022-09-09T02:19:39.769Z,56.06
2022-09-09T02:20:39.721Z,56.03
2022-09-09T02:21:39.732Z,55.60
2022-09-09T02:22:39.732Z,54.05
2022-09-09T02:23:39.780Z,55.03
2022-09-09T02:24:39.695Z,54.11
2022-09-09T02:25:39.695Z,54.72
2022-09-09T02:26:39.710Z,56.15
2022-09-09T02:27:39.666Z,55.80
2022-09-09T02:28:39.742Z,54.48
2022-09-09T02:29:40.356Z,55.34
2022-09-09T02:30:39.777Z,56.09
2022-09-09T02:31:39.742Z,57.27
2022-09-09T02:32:39.729Z,55.95
2022-09-09T02:33:39.734Z,55.53
2022-09-09T02:34:39.739Z,55.04
2022-09-09T02:35:39.734Z,56.33
2022-09-09T02:36:39.766Z,56.21
2022-09-09T02:37:39.689Z,57.62
2022-09-09T02:38:39.680Z,55.67
2022-09-09T02:39:39.663Z,56.01
2022-09-09T02:40:39.666Z,56.09
2022-09-09T02:41:39.711Z,56.81
2022-09-09T02:42:39.721Z,55.04
2022-09-09T02:43:39.632Z,55.64
2022-09-09T02:44:39.669Z,56.19
2022-09-09T02:45:39.903Z,57.12
2022-09-09T02:46:39.576Z,56.86
2022-09-09T02:47:39.551Z,55.92
2022-09-09T02:48:39.574Z,55.55
2022-09-09T02:49:39.615Z,54.59
2022-09-09T02:50:40.498Z,55.70
2022-09-09T02:51:39.502Z,56.19
2022-09-09T02:52:39.541Z,57.06
2022-09-09T02:53:39.637Z,57.07
2022-09-09T02:54:39.555Z,57.49
2022-09-09T02:55:40.024Z,55.78
2022-09-09T02:56:39.552Z,55.58
2022-09-09T02:57:39.604Z,55.86
2022-09-09T02:58:39.617Z,55.46
2022-09-09T02:59:39.615Z,55.86
2022-09-09T03:00:39.563Z,59.46
2022-09-09T03:01:39.584Z,56.25
2022-09-09T03:02:39.592Z,57.48
2022-09-09T03:03:39.496Z,56.54
2022-09-09T03:04:39.543Z,54.98
2022-09-09T03:05:39.473Z,54.73
2022-09-09T03:06:39.372Z,54.82
2022-09-09T03:07:39.407Z,57.26
2022-09-09T03:08:39.389Z,56.74
2022-09-09T03:09:39.456Z,56.39
2022-09-09T03:10:39.386Z,56.75
2022-09-09T03:11:39.462Z,58.46
2022-09-09T03:12:39.437Z,56.47
2022-09-09T03:13:39.428Z,56.05
2022-09-09T03:14:39.418Z,57.28
2022-09-09T03:15:39.468Z,56.75
2022-09-09T03:16:39.488Z,55.04
2022-09-09T03:17:39.389Z,57.52
2022-09-09T03:18:39.441Z,57.82
2022-09-09T03:19:39.409Z,57.64
2022-09-09T03:20:39.513Z,56.80
2022-09-09T03:21:39.353Z,57.36
2022-09-09T03:22:39.473Z,58.37
2022-09-09T03:23:39.366Z,57.08
2022-09-09T03:24:39.344Z,57.54
2022-09-09T03:25:39.321Z,57.68
2022-09-09T03:26:39.562Z,57.07
2022-09-09T03:27:39.320Z,59.13
2022-09-09T03:28:39.312Z,58.42
2022-09-09T03:29:39.213Z,57.59
2022-09-09T03:30:39.236Z,57.51
2022-09-09T03:31:39.435Z,57.88
2022-09-09T03:32:39.215Z,57.79
2022-09-09T03:33:39.172Z,57.28
2022-09-09T03:34:39.343Z,56.66
2022-09-09T03:35:39.287Z,58.11
2022-09-09T03:36:39.267Z,56.54
2022-09-09T03:37:39.290Z,57.05
2022-09-09T03:38:39.237Z,57.08
2022-09-09T03:39:39.311Z,56.24
2022-09-09T03:40:39.237Z,57.66
2022-09-09T03:41:39.263Z,58.20
2022-09-09T03:42:39.328Z,58.89
2022-09-09T03:43:39.310Z,58.53
2022-09-09T03:44:39.197Z,58.59
2022-09-09T03:45:39.298Z,58.55
2022-09-09T03:46:39.178Z,59.32
2022-09-09T03:47:39.196Z,59.31
2022-09-09T03:48:39.211Z,58.74
2022-09-09T03:49:39.172Z,58.35
2022-09-09T03:50:39.175Z,58.15
2022-09-09T03:51:39.108Z,58.51
2022-09-09T03:52:39.047Z,57.62
2022-09-09T03:53:39.057Z,58.01
2022-09-09T03:54:39.034Z,58.68
2022-09-09T03:55:39.037Z,58.88
2022-09-09T03:56:39.131Z,57.40
2022-09-09T03:57:39.046Z,57.84
2022-09-09T03:58:39.041Z,58.57
2022-09-09T03:59:39.055Z,59.08
2022-09-09T04:00:39.031Z,58.25
2022-09-09T04:01:39.010Z,57.69
2022-09-09T04:02:39.205Z,58.20
2022-09-09T04:03:39.078Z,58.03
2022-09-09T04:04:39.144Z,58.12
2022-09-09T04:05:39.494Z,58.20
2022-09-09T04:06:39.137Z,57.56
2022-09-09T04:07:39.029Z,57.55
2022-09-09T04:08:39.141Z,58.36
2022-09-09T04:09:39.070Z,58.14
2022-09-09T04:10:38.996Z,58.66
2022-09-09T04:11:38.986Z,59.42
2022-09-09T04:12:38.983Z,58.12
2022-09-09T04:13:39.009Z,59.73
2022-09-09T04:14:38.967Z,60.61
2022-09-09T04:15:39.072Z,58.53
2022-09-09T04:16:38.999Z,59.08
2022-09-09T04:17:38.965Z,58.50
2022-09-09T04:18:38.870Z,57.98
2022-09-09T04:19:38.859Z,58.09
2022-09-09T04:20:38.938Z,58.66
2022-09-09T04:21:38.972Z,59.61
2022-09-09T04:22:38.827Z,59.63
2022-09-09T04:23:38.862Z,59.39
2022-09-09T04:24:38.840Z,59.27
2022-09-09T04:25:38.843Z,59.11
2022-09-09T04:26:38.820Z,59.00
2022-09-09T04:27:38.950Z,58.52
2022-09-09T04:28:39.042Z,58.34
2022-09-09T04:29:38.815Z,58.57
2022-09-09T04:30:38.905Z,58.08
2022-09-09T04:31:39.432Z,63.27
2022-09-09T04:32:38.891Z,58.60
2022-09-09T04:33:40.482Z,58.26
2022-09-09T04:34:39.903Z,59.37
2022-09-09T04:35:38.866Z,59.17
2022-09-09T04:36:38.874Z,59.46
2022-09-09T04:37:38.908Z,58.15
2022-09-09T04:38:38.864Z,59.14
2022-09-09T04:39:38.852Z,59.96
2022-09-09T04:40:39.255Z,60.04
2022-09-09T04:41:38.845Z,59.08
2022-09-09T04:42:38.826Z,59.33
2022-09-09T04:43:38.814Z,60.90
2022-09-09T04:44:38.802Z,59.56
2022-09-09T04:45:38.730Z,60.75
2022-09-09T04:46:38.840Z,61.21
2022-09-09T04:47:38.778Z,60.15
2022-09-09T04:48:38.693Z,60.46
2022-09-09T04:49:38.692Z,59.84
2022-09-09T04:50:38.675Z,62.18
2022-09-09T04:51:38.731Z,59.83
2022-09-09T04:52:38.673Z,59.84
2022-09-09T04:53:38.713Z,59.50
2022-09-09T04:54:38.863Z,61.52
2022-09-09T04:55:38.684Z,61.19
2022-09-09T04:56:38.703Z,60.38
2022-09-09T04:57:38.699Z,60.71
2022-09-09T04:58:38.662Z,60.97
2022-09-09T04:59:38.715Z,61.91
2022-09-09T05:00:38.745Z,61.97
2022-09-09T05:01:38.728Z,60.84
2022-09-09T05:02:38.722Z,60.31
2022-09-09T05:03:38.694Z,60.54
2022-09-09T05:04:38.686Z,59.96
2022-09-09T05:05:38.709Z,60.97
2022-09-09T05:06:38.624Z,62.04
2022-09-09T05:07:38.611Z,60.91
2022-09-09T05:08:38.662Z,60.58
2022-09-09T05:09:38.508Z,60.87
2022-09-09T05:10:38.531Z,61.81
2022-09-09T05:11:38.521Z,60.80
2022-09-09T05:12:38.535Z,60.44
2022-09-09T05:13:41.451Z,61.19
2022-09-09T05:14:39.542Z,61.46
2022-09-09T05:15:38.585Z,61.98
2022-09-09T05:16:38.621Z,61.92
2022-09-09T05:17:38.554Z,61.95
2022-09-09T05:18:38.535Z,60.48
2022-09-09T05:19:38.514Z,61.62
2022-09-09T05:20:38.538Z,61.64
2022-09-09T05:21:38.577Z,62.72
2022-09-09T05:22:38.522Z,61.11
2022-09-09T05:23:38.438Z,61.10
2022-09-09T05:24:38.536Z,60.14
2022-09-09T05:25:38.496Z,60.53
2022-09-09T05:26:38.509Z,61.45
2022-09-09T05:27:38.503Z,61.26
2022-09-09T05:28:38.552Z,60.78
2022-09-09T05:29:38.564Z,61.51
2022-09-09T05:30:38.508Z,65.85
2022-09-09T05:31:38.611Z,66.24
2022-09-09T05:32:38.490Z,67.67
2022-09-09T05:33:38.465Z,71.36
2022-09-09T05:34:38.605Z,60.77
2022-09-09T05:35:38.327Z,60.62
2022-09-09T05:36:38.339Z,60.53
2022-09-09T05:37:38.415Z,67.19
2022-09-09T05:38:38.607Z,74.73
2022-09-09T05:39:38.460Z,60.51
2022-09-09T05:40:38.457Z,60.75
2022-09-09T05:41:38.402Z,61.38
2022-09-09T05:42:38.425Z,62.21
2022-09-09T05:43:38.357Z,61.70
2022-09-09T05:44:38.398Z,61.96
2022-09-09T05:45:38.393Z,63.23
2022-09-09T05:46:39.461Z,62.60
2022-09-09T05:47:38.386Z,60.29
2022-09-09T05:48:38.489Z,62.47
2022-09-09T05:49:38.361Z,60.78
2022-09-09T05:50:38.324Z,60.22
2022-09-09T05:51:38.301Z,58.99
2022-09-09T05:52:38.233Z,61.45
2022-09-09T05:53:38.329Z,60.23
2022-09-09T05:54:38.344Z,60.68
2022-09-09T05:55:38.269Z,60.01
2022-09-09T05:56:38.351Z,61.36
2022-09-09T05:57:38.334Z,59.42
2022-09-09T05:58:38.446Z,59.54
2022-09-09T05:59:38.370Z,58.99
2022-09-09T06:00:38.277Z,59.33
2022-09-09T06:01:38.420Z,60.56
2022-09-09T06:02:38.461Z,59.99
2022-09-09T06:03:38.265Z,61.62
2022-09-09T06:04:38.233Z,61.16
2022-09-09T06:05:38.301Z,60.21
2022-09-09T06:06:38.243Z,60.29
2022-09-09T06:07:38.228Z,57.94
2022-09-09T06:08:38.372Z,61.01
2022-09-09T06:09:38.248Z,59.08
2022-09-09T06:10:38.209Z,59.03
2022-09-09T06:11:38.077Z,59.29
2022-09-09T06:12:38.065Z,59.01
2022-09-09T06:13:39.112Z,57.65
2022-09-09T06:14:38.048Z,57.93
2022-09-09T06:15:38.095Z,58.65
2022-09-09T06:16:38.086Z,57.59
2022-09-09T06:17:38.090Z,59.42
2022-09-09T06:18:38.094Z,58.89
2022-09-09T06:19:38.062Z,58.39
2022-09-09T06:20:38.153Z,59.50
2022-09-09T06:21:38.164Z,58.55
2022-09-09T06:22:38.157Z,58.82
2022-09-09T06:23:38.157Z,57.28
2022-09-09T06:24:38.070Z,58.13
2022-09-09T06:25:38.082Z,58.83
2022-09-09T06:26:38.135Z,59.29
2022-09-09T06:27:38.095Z,56.98
2022-09-09T06:28:38.640Z,56.60
2022-09-09T06:29:38.029Z,56.19
2022-09-09T06:30:38.078Z,58.86
2022-09-09T06:31:38.189Z,57.77
2022-09-09T06:32:38.028Z,55.80
2022-09-09T06:33:38.033Z,56.83
2022-09-09T06:34:37.987Z,58.00
2022-09-09T06:35:37.926Z,57.09
2022-09-09T06:36:37.905Z,56.61
2022-09-09T06:37:38.075Z,56.34
2022-09-09T06:38:38.017Z,56.11
2022-09-09T06:39:38.279Z,55.86
2022-09-09T06:40:37.894Z,55.47
2022-09-09T06:41:38.006Z,57.71
2022-09-09T06:42:37.986Z,58.29
2022-09-09T06:43:38.023Z,58.16
2022-09-09T06:44:37.990Z,57.83
2022-09-09T06:45:38.099Z,58.52
2022-09-09T06:46:38.025Z,59.35
2022-09-09T06:47:37.871Z,57.09
2022-09-09T06:48:38.109Z,57.02
2022-09-09T06:49:37.900Z,57.66
2022-09-09T06:50:38.007Z,56.73
2022-09-09T06:51:37.912Z,57.63
2022-09-09T06:52:37.792Z,57.17
2022-09-09T06:53:37.876Z,57.38
2022-09-09T06:54:37.867Z,56.53
2022-09-09T06:55:37.874Z,55.95
2022-09-09T06:56:37.908Z,56.24
2022-09-09T06:57:38.255Z,57.68
2022-09-09T06:58:37.944Z,58.23
2022-09-09T06:59:37.769Z,56.83
2022-09-09T07:00:37.784Z,57.65
2022-09-09T07:01:37.946Z,58.24
2022-09-09T07:02:37.710Z,56.41
2022-09-09T07:03:37.713Z,57.25
2022-09-09T07:04:37.695Z,55.79
2022-09-09T08:28:31.276Z,53.01
2022-09-09T08:29:31.242Z,52.76
2022-09-09T08:30:31.230Z,53.65
2022-09-09T08:31:31.245Z,54.27
2022-09-09T08:32:32.374Z,55.23
2022-09-09T08:33:31.368Z,56.47
2022-09-09T08:34:31.362Z,56.06
2022-09-09T08:35:31.357Z,66.53
2022-09-09T08:36:31.356Z,53.67
2022-09-09T08:37:31.330Z,55.93
2022-09-09T08:38:31.262Z,53.13
2022-09-09T08:39:31.419Z,54.51
2022-09-09T08:40:31.334Z,56.30
2022-09-09T08:41:31.325Z,53.75
2022-09-09T08:42:31.290Z,54.58
2022-09-09T08:43:31.308Z,56.21
2022-09-09T08:44:31.107Z,55.31
2022-09-09T08:45:31.138Z,54.33
2022-09-09T08:46:31.167Z,53.72
2022-09-09T08:47:33.931Z,53.90
2022-09-09T08:48:32.478Z,53.87
2022-09-09T08:49:31.138Z,54.40
2022-09-09T08:50:31.282Z,54.08
2022-09-09T08:51:31.222Z,55.03
2022-09-09T08:52:31.089Z,54.18
2022-09-09T08:53:31.231Z,53.59
2022-09-09T08:54:51.306Z,53.98
2022-09-09T08:55:33.072Z,55.69
2022-09-09T08:56:31.154Z,53.96
2022-09-09T08:57:31.217Z,56.95
2022-09-09T08:58:31.181Z,55.06
2022-09-09T08:59:31.639Z,55.77
2022-09-09T09:00:31.142Z,54.18
2022-09-09T09:01:31.185Z,55.03
2022-09-09T09:02:31.160Z,55.19
2022-09-09T09:03:31.095Z,54.86
2022-09-09T09:04:31.248Z,54.45
2022-09-09T09:05:31.210Z,54.78
2022-09-09T09:06:30.966Z,53.89
2022-09-09T09:07:32.984Z,53.74
2022-09-09T09:08:31.961Z,53.35
2022-09-09T09:09:31.089Z,55.79
2022-09-09T09:10:41.666Z,58.38
2022-09-09T09:11:32.924Z,54.50
2022-09-09T09:12:30.967Z,55.07
2022-09-09T09:13:30.991Z,53.93
2022-09-09T09:14:31.027Z,52.05
2022-09-09T09:15:32.613Z,53.08
2022-09-09T09:16:31.045Z,53.61
2022-09-09T09:17:31.040Z,53.31
2022-09-09T09:18:31.017Z,54.08
2022-09-09T09:19:30.997Z,54.82
2022-09-09T09:20:31.031Z,53.00
2022-09-09T09:21:31.027Z,53.15
2022-09-09T09:22:30.996Z,56.47
2022-09-09T09:23:30.965Z,54.05
2022-09-09T09:24:30.981Z,53.30
2022-09-09T09:25:30.967Z,57.84
2022-09-09T09:26:30.917Z,54.49
2022-09-09T09:27:30.802Z,55.60
2022-09-09T09:28:30.866Z,57.05
2022-09-09T09:29:30.827Z,54.12
2022-09-09T09:30:31.000Z,54.23
2022-09-09T09:31:30.846Z,53.66
2022-09-09T09:32:30.910Z,54.27
2022-09-09T09:33:30.878Z,54.25
2022-09-09T09:34:30.878Z,52.35
2022-09-09T09:35:30.859Z,52.94
2022-09-09T09:36:30.891Z,54.09
2022-09-09T09:37:30.924Z,55.48
2022-09-09T09:40:32.767Z,53.12
2022-09-09T09:41:30.863Z,54.12
2022-09-09T09:42:30.839Z,55.10
2022-09-09T09:43:30.824Z,53.94
2022-09-09T09:44:30.833Z,55.58
2022-09-09T09:45:30.842Z,53.19
2022-09-09T09:46:30.914Z,54.60
2022-09-09T09:47:30.803Z,53.98
2022-09-09T09:48:30.908Z,56.43
2022-09-09T09:49:30.763Z,53.33
2022-09-09T09:50:30.760Z,53.35
2022-09-09T09:51:30.764Z,52.35
2022-09-09T09:52:30.659Z,52.90
2022-09-09T09:53:30.882Z,52.61
2022-09-09T09:54:30.648Z,55.22
2022-09-09T09:55:30.604Z,52.72
2022-09-09T09:56:30.618Z,54.26
2022-09-09T09:57:30.669Z,55.58
2022-09-09T09:58:30.696Z,55.68
2022-09-09T09:59:39.179Z,53.47
2022-09-09T10:00:32.728Z,53.81
2022-09-09T10:01:30.614Z,52.89
2022-09-09T10:02:30.719Z,55.67
2022-09-09T10:03:30.654Z,54.53
2022-09-09T10:04:30.719Z,54.20
2022-09-09T10:05:35.171Z,54.63
2022-09-09T10:06:32.716Z,54.28
2022-09-09T10:07:31.262Z,52.70
2022-09-09T10:08:30.656Z,55.11
2022-09-09T10:09:30.730Z,54.35
2022-09-09T10:10:30.699Z,53.88
2022-09-09T10:11:30.682Z,53.89
2022-09-09T10:12:30.619Z,54.85
2022-09-09T10:13:30.577Z,54.92
2022-09-09T10:14:30.588Z,54.60
2022-09-09T10:15:30.596Z,56.24
2022-09-09T10:16:30.444Z,54.60
2022-09-09T10:17:30.431Z,53.53
2022-09-09T10:18:30.449Z,54.66
2022-09-09T10:19:30.537Z,53.24
2022-09-09T10:20:30.428Z,53.24
2022-09-09T10:21:33.178Z,54.92
2022-09-09T10:22:31.397Z,53.49
2022-09-09T10:23:30.534Z,54.84
2022-09-09T10:24:30.502Z,56.44
2022-09-09T10:25:30.487Z,53.01
2022-09-09T10:26:30.521Z,52.11
2022-09-09T10:27:30.501Z,53.21
2022-09-09T10:28:30.445Z,53.33
2022-09-09T10:29:30.467Z,54.31
2022-09-09T10:30:30.487Z,56.15
2022-09-09T10:31:30.539Z,55.76
2022-09-09T10:32:30.562Z,55.99
2022-09-09T10:33:32.790Z,55.19
2022-09-09T10:34:31.605Z,56.62
2022-09-09T10:35:30.431Z,54.12
2022-09-09T10:36:30.489Z,54.41
2022-09-09T10:37:30.492Z,55.79
2022-09-09T10:38:30.289Z,53.37
2022-09-09T10:39:30.459Z,54.80
2022-09-09T10:40:30.390Z,54.92
2022-09-09T10:41:30.267Z,52.87
2022-09-09T10:42:30.250Z,54.27
2022-09-09T10:43:30.308Z,55.50
2022-09-09T10:44:30.292Z,56.08
2022-09-09T10:45:30.254Z,55.41
2022-09-09T10:46:30.405Z,57.27
2022-09-09T10:47:30.344Z,56.59
2022-09-09T10:48:30.342Z,56.00
2022-09-09T10:49:31.562Z,58.20
2022-09-09T10:50:57.240Z,56.00
2022-09-09T10:51:32.240Z,55.90
2022-09-09T10:52:30.199Z,54.87
2022-09-09T10:53:30.339Z,52.68
2022-09-09T10:54:30.439Z,53.51
2022-09-09T10:55:30.433Z,55.32
2022-09-09T10:56:30.259Z,52.26
2022-09-09T10:57:30.315Z,52.79
2022-09-09T10:58:30.233Z,52.31
2022-09-09T10:59:30.333Z,53.51
2022-09-09T11:00:30.497Z,54.80
2022-09-09T11:01:30.220Z,56.95
2022-09-09T11:02:30.110Z,53.52
2022-09-09T11:03:30.234Z,55.73
2022-09-09T11:04:30.105Z,53.33
2022-09-09T11:05:30.138Z,54.26
2022-09-09T11:06:30.192Z,53.60
2022-09-09T11:07:30.093Z,53.48
2022-09-09T11:08:30.063Z,54.86
2022-09-09T11:09:30.157Z,51.99
2022-09-09T11:10:30.185Z,55.04
2022-09-09T11:11:30.163Z,57.08
2022-09-09T11:12:30.184Z,55.10
2022-09-09T11:13:30.193Z,54.64
2022-09-09T11:14:34.064Z,53.92
2022-09-09T11:15:31.049Z,54.94
2022-09-09T11:16:30.238Z,55.74
2022-09-09T11:17:30.135Z,56.55
2022-09-09T11:18:30.256Z,56.75
2022-09-09T11:19:30.142Z,58.69
2022-09-09T11:20:30.127Z,62.18
2022-09-09T11:21:30.078Z,67.37
2022-09-09T11:22:30.121Z,60.18
2022-09-09T11:23:30.144Z,63.00
2022-09-09T11:24:30.081Z,62.43
2022-09-09T11:25:30.104Z,60.26
2022-09-09T11:26:30.028Z,59.40
2022-09-09T11:27:29.956Z,59.85
2022-09-09T11:28:29.957Z,60.52
2022-09-09T11:29:29.901Z,60.17
2022-09-09T11:30:54.801Z,58.98
2022-09-09T11:31:32.127Z,59.67
2022-09-09T11:32:29.910Z,58.22
2022-09-09T11:33:30.131Z,59.54
2022-09-09T11:34:30.020Z,57.57
2022-09-09T11:35:30.093Z,56.26
2022-09-09T11:36:30.051Z,58.26
2022-09-09T11:37:30.057Z,59.33
2022-09-09T11:38:30.102Z,58.66
2022-09-09T11:39:30.024Z,57.76
2022-09-09T11:40:29.937Z,57.08
2022-09-09T11:41:30.604Z,57.55
2022-09-09T11:42:29.836Z,58.25
2022-09-09T11:43:29.994Z,55.24
2022-09-09T11:44:29.960Z,56.63
2022-09-09T11:45:29.918Z,57.67
2022-09-09T11:46:29.967Z,58.09
2022-09-09T11:47:29.954Z,57.84
2022-09-09T11:48:29.934Z,56.04
2022-09-09T11:49:29.884Z,57.24
2022-09-09T11:50:29.791Z,55.78
2022-09-09T11:51:29.789Z,56.68
2022-09-09T11:52:29.866Z,56.52
2022-09-09T11:53:29.768Z,56.74
2022-09-09T11:54:29.778Z,56.26
2022-09-09T11:55:29.774Z,55.56
2022-09-09T11:56:29.729Z,53.73
2022-09-09T11:57:30.103Z,55.45
2022-09-09T11:58:29.722Z,56.47
2022-09-09T11:59:29.826Z,55.30
2022-09-09T12:00:29.831Z,54.50
2022-09-09T12:01:29.781Z,57.39
2022-09-09T12:02:30.192Z,60.02
2022-09-09T12:03:29.790Z,56.52
2022-09-09T12:04:30.122Z,58.46
2022-09-09T12:05:29.784Z,59.73
2022-09-09T12:06:29.740Z,59.58
2022-09-09T12:07:29.702Z,58.33
2022-09-09T12:08:29.865Z,58.44
2022-09-09T12:09:29.776Z,60.48
2022-09-09T12:10:29.726Z,60.88
2022-09-09T12:11:29.636Z,60.99
2022-09-09T12:12:29.619Z,59.41
2022-09-09T12:13:29.615Z,61.77
2022-09-09T12:14:29.580Z,61.98
2022-09-09T12:15:29.590Z,61.82
2022-09-09T12:16:29.661Z,60.87
2022-09-09T12:17:29.622Z,60.13
2022-09-09T12:18:29.621Z,61.01
2022-09-09T12:19:29.716Z,61.47
2022-09-09T12:20:29.559Z,62.04
2022-09-09T12:21:29.716Z,60.40
2022-09-09T12:22:29.644Z,62.32
2022-09-09T12:23:29.787Z,62.72
2022-09-09T12:24:29.628Z,62.03
2022-09-09T12:25:29.651Z,62.36
2022-09-09T12:26:29.595Z,62.55
2022-09-09T12:27:29.807Z,62.02
2022-09-09T12:28:29.601Z,63.98
2022-09-09T12:29:30.507Z,61.72
2022-09-09T12:30:29.666Z,59.69
2022-09-09T12:31:29.547Z,60.80
2022-09-09T12:32:29.552Z,60.83
2022-09-09T12:33:29.518Z,59.16
2022-09-09T12:34:29.497Z,58.64
2022-09-09T12:35:29.419Z,59.44
2022-09-09T12:36:29.536Z,59.73
2022-09-09T12:37:29.403Z,59.71
2022-09-09T12:38:29.414Z,59.27
2022-09-09T12:39:29.425Z,59.32
2022-09-09T12:40:29.374Z,59.34
2022-09-09T12:41:30.385Z,58.40
2022-09-09T12:42:29.395Z,60.55
2022-09-09T12:43:29.498Z,58.42
2022-09-09T12:44:29.530Z,57.30
2022-09-09T12:45:29.474Z,58.24
2022-09-09T12:46:29.554Z,58.54
2022-09-09T12:47:30.414Z,58.37
2022-09-09T12:48:30.861Z,59.21
2022-09-09T12:49:29.422Z,59.37
2022-09-09T12:50:29.543Z,56.86
2022-09-09T12:51:29.404Z,56.56
2022-09-09T12:52:29.324Z,57.01
2022-09-09T12:53:29.401Z,56.55
2022-09-09T12:54:29.401Z,58.43
2022-09-09T12:55:29.405Z,57.16
2022-09-09T12:56:29.328Z,56.87
2022-09-09T12:57:29.305Z,56.26
2022-09-09T12:58:29.335Z,54.54
2022-09-09T12:59:29.381Z,56.90
2022-09-09T13:00:29.329Z,57.51
2022-09-09T13:01:29.465Z,58.55
2022-09-09T13:02:29.404Z,57.79
2022-09-09T13:03:29.271Z,56.03
2022-09-09T13:04:29.331Z,58.69
2022-09-09T13:05:29.415Z,56.43
2022-09-09T13:06:29.681Z,57.91
2022-09-09T13:07:29.384Z,56.79
2022-09-09T13:08:29.323Z,55.94
2022-09-09T13:09:29.382Z,55.64
2022-09-09T13:10:36.645Z,57.51
2022-09-09T13:11:31.339Z,55.13
2022-09-09T13:12:29.349Z,54.78
2022-09-09T13:13:29.304Z,55.98
2022-09-09T13:14:29.288Z,54.42
2022-09-09T13:15:29.245Z,54.78
2022-09-09T13:16:29.341Z,56.53
2022-09-09T13:17:29.251Z,55.46
2022-09-09T13:18:29.234Z,55.32
2022-09-09T13:19:29.263Z,54.54
2022-09-09T13:20:29.274Z,53.51
2022-09-09T13:21:29.157Z,57.30
2022-09-09T13:22:29.123Z,55.04
2022-09-09T13:23:29.091Z,57.79
2022-09-09T13:24:29.087Z,56.38
2022-09-09T13:25:29.194Z,54.90
2022-09-09T13:26:29.274Z,54.86
2022-09-09T13:27:29.209Z,54.72
2022-09-09T13:28:33.710Z,55.91
2022-09-09T13:29:30.095Z,55.68
2022-09-09T13:30:29.233Z,55.29
2022-09-09T13:31:29.250Z,55.99
2022-09-09T13:32:29.231Z,54.65
2022-09-09T13:33:29.154Z,54.54
2022-09-09T13:34:29.180Z,54.91
2022-09-09T13:35:29.793Z,54.89
2022-09-09T13:36:29.181Z,54.37
2022-09-09T13:37:29.099Z,55.07
2022-09-09T13:38:29.078Z,56.62
2022-09-09T13:39:29.115Z,55.48
2022-09-09T13:40:29.110Z,56.02
2022-09-09T13:41:29.163Z,56.19
2022-09-09T13:42:29.068Z,56.28
2022-09-09T13:43:28.977Z,56.09
2022-09-09T13:44:28.973Z,56.92
2022-09-09T13:45:28.962Z,57.91
2022-09-09T13:46:29.067Z,55.99
2022-09-09T13:47:28.967Z,56.69
2022-09-09T13:48:28.934Z,56.52
2022-09-09T13:49:29.080Z,54.11
2022-09-09T13:50:29.016Z,53.86
2022-09-09T13:51:29.060Z,55.08
2022-09-09T13:52:28.955Z,57.60
2022-09-09T13:53:29.040Z,54.08
2022-09-09T13:54:29.009Z,52.91
2022-09-09T13:55:29.046Z,50.02
2022-09-09T13:56:28.993Z,52.10
2022-09-09T13:57:29.057Z,52.85
2022-09-09T13:58:28.965Z,52.98
2022-09-09T13:59:53.924Z,53.02
2022-09-09T14:00:30.879Z,53.73
2022-09-09T14:01:29.693Z,54.88
2022-09-09T14:02:30.140Z,53.98
2022-09-09T14:03:29.043Z,55.94
2022-09-09T14:04:28.925Z,54.56
2022-09-09T14:05:28.934Z,55.03
2022-09-09T14:06:28.949Z,55.21
2022-09-09T14:07:28.812Z,56.26
2022-09-09T14:08:28.861Z,53.35
2022-09-09T14:09:29.024Z,55.25
2022-09-09T14:10:28.808Z,55.26
2022-09-09T14:11:28.748Z,53.39
2022-09-09T14:12:28.745Z,55.14
2022-09-09T14:13:28.811Z,54.04
2022-09-09T14:14:28.755Z,55.08
2022-09-09T14:15:28.875Z,54.70
2022-09-09T14:16:28.926Z,54.12
2022-09-09T14:17:28.828Z,55.41